createdAt,value
2023-08-21T00:00:59.567Z,100.00
2023-08-21T00:04:00.994Z,100.00
2023-08-21T00:07:02.516Z,100.00
2023-08-21T00:10:04.018Z,100.00
2023-08-21T00:13:06.044Z,100.00
2023-08-21T00:16:07.484Z,100.00
2023-08-21T00:19:08.848Z,100.00
2023-08-21T00:22:10.210Z,100.00
2023-08-21T00:25:11.580Z,100.00
2023-08-21T00:28:13.240Z,100.00
2023-08-21T00:31:14.652Z,100.00
2023-08-21T00:34:16.048Z,100.00
2023-08-21T00:37:17.432Z,100.00
2023-08-21T00:40:19.016Z,100.00
2023-08-21T00:43:20.509Z,100.00
2023-08-21T00:46:21.888Z,100.00
2023-08-21T00:49:23.283Z,100.00
2023-08-21T00:52:24.714Z,100.00
2023-08-21T00:55:26.102Z,100.00
2023-08-21T00:58:27.474Z,100.00
2023-08-21T01:01:28.902Z,100.00
2023-08-21T01:04:30.306Z,100.00
2023-08-21T01:07:32.979Z,100.00
2023-08-21T01:10:34.583Z,100.00
2023-08-21T01:13:36.167Z,100.00
2023-08-21T01:16:38.318Z,100.00
2023-08-21T01:19:43.461Z,100.00
2023-08-21T01:22:47.185Z,100.00
2023-08-21T01:25:48.631Z,100.00
2023-08-21T01:28:50.044Z,100.00
2023-08-21T01:31:59.827Z,100.00
2023-08-21T01:35:01.326Z,100.00
2023-08-21T01:38:03.295Z,100.00
2023-08-21T01:41:04.726Z,100.00
2023-08-21T01:44:06.115Z,100.00
2023-08-21T01:47:07.656Z,100.00
2023-08-21T01:50:09.228Z,100.00
2023-08-21T01:53:10.618Z,100.00
2023-08-21T01:56:11.978Z,100.00
2023-08-21T01:59:13.357Z,100.00
2023-08-21T02:02:14.761Z,100.00
2023-08-21T02:05:16.140Z,100.00
2023-08-21T02:08:18.012Z,100.00
2023-08-21T02:11:19.398Z,100.00
2023-08-21T02:14:20.792Z,100.00
2023-08-21T02:17:22.169Z,100.00
2023-08-21T02:20:23.549Z,100.00
2023-08-21T02:23:25.479Z,100.00
2023-08-21T02:26:26.852Z,100.00
2023-08-21T02:29:28.244Z,100.00
2023-08-21T02:32:29.978Z,100.00
2023-08-21T02:35:31.370Z,100.00
2023-08-21T02:38:32.720Z,100.00
2023-08-21T02:41:34.105Z,100.00
2023-08-21T02:44:35.450Z,100.00
2023-08-21T02:47:37.764Z,100.00
2023-08-21T02:50:39.302Z,100.00
2023-08-21T02:53:40.737Z,100.00
2023-08-21T02:56:42.107Z,100.00
2023-08-21T02:59:43.492Z,100.00
2023-08-21T03:02:45.432Z,100.00
2023-08-21T03:05:46.996Z,100.00
2023-08-21T03:08:48.443Z,100.00
2023-08-21T03:11:49.806Z,100.00
2023-08-21T03:14:51.351Z,100.00
2023-08-21T03:17:52.773Z,100.00
2023-08-21T03:20:54.186Z,100.00
2023-08-21T03:23:56.238Z,100.00
2023-08-21T03:26:57.604Z,100.00
2023-08-21T03:30:02.017Z,100.00
2023-08-21T03:33:03.708Z,100.00
2023-08-21T03:36:05.217Z,100.00
2023-08-21T03:39:09.565Z,100.00
2023-08-21T03:42:10.943Z,100.00
2023-08-21T03:45:12.316Z,100.00
2023-08-21T03:48:14.366Z,100.00
2023-08-21T03:51:15.819Z,100.00
2023-08-21T03:54:17.198Z,100.00
2023-08-21T03:57:18.583Z,100.00
2023-08-21T04:00:19.976Z,100.00
2023-08-21T04:03:21.538Z,100.00
2023-08-21T04:06:22.935Z,100.00
2023-08-21T04:09:24.320Z,100.00
2023-08-21T04:12:25.745Z,100.00
2023-08-21T04:15:27.240Z,100.00
2023-08-21T04:18:40.149Z,100.00
2023-08-21T04:21:43.397Z,100.00
2023-08-21T04:24:44.772Z,100.00
2023-08-21T04:27:46.138Z,100.00
2023-08-21T04:30:47.503Z,100.00
2023-08-21T04:33:48.859Z,100.00
2023-08-21T04:36:50.352Z,100.00
2023-08-21T04:39:52.711Z,100.00
2023-08-21T04:42:54.094Z,100.00
2023-08-21T04:45:55.490Z,100.00
2023-08-21T04:48:56.944Z,100.00
2023-08-21T04:51:58.328Z,100.00
2023-08-21T04:54:59.923Z,100.00
2023-08-21T04:58:01.274Z,100.00
2023-08-21T05:01:02.685Z,100.00
2023-08-21T05:04:04.181Z,100.00
2023-08-21T05:07:05.664Z,100.00
2023-08-21T05:10:07.279Z,100.00
2023-08-21T05:13:08.665Z,100.00
2023-08-21T05:16:10.087Z,100.00
2023-08-21T05:19:11.477Z,100.00
2023-08-21T05:22:12.831Z,100.00
2023-08-21T05:25:14.532Z,100.00
2023-08-21T05:28:15.980Z,100.00
2023-08-21T05:31:17.442Z,100.00
2023-08-21T05:34:18.836Z,100.00
2023-08-21T05:37:20.211Z,100.00
2023-08-21T05:40:21.590Z,100.00
2023-08-21T05:43:22.945Z,100.00
2023-08-21T05:46:24.340Z,100.00
2023-08-21T05:49:25.827Z,100.00
2023-08-21T05:52:27.225Z,100.00
2023-08-21T05:55:28.652Z,100.00
2023-08-21T05:58:32.584Z,100.00
2023-08-21T06:01:34.051Z,100.00
2023-08-21T06:04:35.644Z,100.00
2023-08-21T06:07:37.050Z,100.00
2023-08-21T06:10:38.474Z,100.00
2023-08-21T06:13:39.862Z,100.00
2023-08-21T06:16:41.555Z,100.00
2023-08-21T06:19:45.505Z,100.00
2023-08-21T06:22:46.910Z,100.00
2023-08-21T06:25:48.858Z,100.00
2023-08-21T06:28:50.234Z,100.00
2023-08-21T06:31:51.608Z,100.00
2023-08-21T06:34:52.957Z,100.00
2023-08-21T06:37:55.640Z,100.00
2023-08-21T06:40:57.086Z,100.00
2023-08-21T06:43:58.689Z,100.00
2023-08-21T06:47:00.204Z,100.00
2023-08-21T06:50:01.692Z,100.00
2023-08-21T06:53:03.076Z,100.00
2023-08-21T06:56:04.480Z,100.00
2023-08-21T06:59:05.847Z,100.00
2023-08-21T07:02:07.189Z,100.00
2023-08-21T07:05:12.792Z,100.00
2023-08-21T07:08:14.553Z,100.00
2023-08-21T07:11:18.209Z,100.00
2023-08-21T07:14:20.185Z,100.00
2023-08-21T07:17:21.588Z,100.00
2023-08-21T07:20:23.212Z,100.00
2023-08-21T07:23:24.573Z,100.00
2023-08-21T07:26:25.937Z,100.00
2023-08-21T07:29:27.421Z,100.00
2023-08-21T07:32:28.823Z,100.00
2023-08-21T07:35:30.256Z,100.00
2023-08-21T07:38:31.710Z,100.00
2023-08-21T07:41:33.284Z,100.00
2023-08-21T07:44:34.675Z,100.00
2023-08-21T07:47:37.426Z,100.00
2023-08-21T07:50:39.369Z,100.00
2023-08-21T07:53:40.749Z,100.00
2023-08-21T07:56:42.218Z,100.00
2023-08-21T07:59:43.563Z,100.00
2023-08-21T08:02:45.838Z,100.00
2023-08-21T08:05:54.816Z,100.00
2023-08-21T08:08:57.083Z,100.00
2023-08-21T08:11:58.484Z,100.00
2023-08-21T08:14:59.902Z,100.00
2023-08-21T08:18:01.483Z,100.00
2023-08-21T08:21:02.875Z,100.00
2023-08-21T08:24:04.727Z,100.00
2023-08-21T08:27:06.186Z,100.00
2023-08-21T08:30:09.340Z,100.00
2023-08-21T08:33:10.796Z,100.00
2023-08-21T08:36:12.203Z,100.00
2023-08-21T08:39:13.705Z,100.00
2023-08-21T08:42:15.212Z,100.00
2023-08-21T08:45:16.976Z,100.00
2023-08-21T08:48:18.341Z,100.00
2023-08-21T08:51:19.826Z,100.00
2023-08-21T08:54:21.559Z,100.00
2023-08-21T08:57:23.036Z,100.00
2023-08-21T09:00:25.090Z,100.00
2023-08-21T09:03:26.791Z,100.00
2023-08-21T09:06:28.250Z,100.00
2023-08-21T09:09:31.359Z,100.00
2023-08-21T09:12:32.940Z,100.00
2023-08-21T09:15:41.685Z,100.00
2023-08-21T09:18:47.672Z,100.00
2023-08-21T09:21:50.336Z,100.00
2023-08-21T09:25:07.850Z,100.00
2023-08-21T09:28:09.535Z,100.00
2023-08-21T09:31:11.446Z,100.00
2023-08-21T09:34:12.846Z,100.00
2023-08-21T09:37:14.212Z,100.00
2023-08-21T09:40:18.590Z,100.00
2023-08-21T09:43:20.046Z,100.00
2023-08-21T09:46:24.869Z,100.00
2023-08-21T09:49:26.262Z,100.00
2023-08-21T09:52:27.639Z,100.00
2023-08-21T09:55:31.158Z,100.00
2023-08-21T09:58:32.583Z,100.00
2023-08-21T10:01:34.101Z,100.00
2023-08-21T10:04:35.996Z,100.00
2023-08-21T10:07:37.857Z,100.00
2023-08-21T10:10:39.600Z,100.00
2023-08-21T10:13:40.971Z,100.00
2023-08-21T10:16:42.420Z,100.00
2023-08-21T10:19:45.074Z,100.00
2023-08-21T10:22:46.827Z,100.00
2023-08-21T10:25:48.248Z,100.00
2023-08-21T10:28:53.681Z,100.00
2023-08-21T10:32:02.343Z,100.00
2023-08-21T10:35:04.096Z,100.00
2023-08-21T10:38:11.624Z,100.00
2023-08-21T10:41:12.993Z,100.00
2023-08-21T10:44:14.378Z,100.00
2023-08-21T10:47:16.490Z,100.00
2023-08-21T10:50:17.875Z,100.00
2023-08-21T10:53:19.302Z,100.00
2023-08-21T10:56:20.669Z,100.00
2023-08-21T10:59:22.050Z,100.00
2023-08-21T11:02:23.924Z,100.00
2023-08-21T11:05:25.354Z,100.00
2023-08-21T11:08:26.742Z,100.00
2023-08-21T11:11:28.135Z,100.00
2023-08-21T11:14:29.521Z,100.00
2023-08-21T11:17:30.923Z,100.00
2023-08-21T11:20:32.639Z,100.00
2023-08-21T11:23:34.969Z,100.00
2023-08-21T11:26:36.398Z,94.97
2023-08-21T11:29:38.725Z,99.43
2023-08-21T11:32:42.233Z,97.70
2023-08-21T11:35:44.684Z,100.00
2023-08-21T11:38:58.413Z,99.40
2023-08-21T11:42:00.042Z,98.49
2023-08-21T11:45:01.872Z,100.00
2023-08-21T11:48:04.321Z,100.00
2023-08-21T11:51:05.821Z,100.00
2023-08-21T11:54:07.171Z,97.87
2023-08-21T11:57:09.111Z,100.00
2023-08-21T12:00:12.420Z,100.00
2023-08-21T12:03:18.481Z,100.00
2023-08-21T12:06:19.891Z,99.59
2023-08-21T12:09:21.585Z,95.42
2023-08-21T12:12:23.643Z,98.91
2023-08-21T12:15:25.092Z,100.00
2023-08-21T12:18:26.572Z,96.27
2023-08-21T12:21:27.979Z,95.25
2023-08-21T12:24:29.429Z,100.00
2023-08-21T12:27:31.366Z,95.41
2023-08-21T12:30:32.735Z,98.99
2023-08-21T12:33:34.114Z,95.74
2023-08-21T12:36:38.544Z,95.80
2023-08-21T12:39:39.948Z,97.04
2023-08-21T12:42:41.344Z,97.42
2023-08-21T12:45:42.956Z,91.79
2023-08-21T12:48:44.590Z,92.46
2023-08-21T12:51:45.974Z,90.97
2023-08-21T12:54:47.428Z,91.17
2023-08-21T12:57:48.856Z,94.27
2023-08-21T13:00:50.225Z,93.85
2023-08-21T13:03:51.676Z,93.46
2023-08-21T13:06:53.072Z,93.49
2023-08-21T13:09:54.445Z,94.84
2023-08-21T13:12:55.837Z,96.26
2023-08-21T13:15:57.237Z,96.60
2023-08-21T13:18:58.655Z,95.92
2023-08-21T13:22:00.027Z,94.44
2023-08-21T13:25:01.499Z,93.46
2023-08-21T13:28:03.960Z,90.00
2023-08-21T13:31:06.614Z,91.74
2023-08-21T13:34:07.971Z,93.00
2023-08-21T13:37:09.335Z,87.76
2023-08-21T13:40:13.375Z,86.81
2023-08-21T13:43:15.564Z,88.14
2023-08-21T13:46:16.922Z,83.33
2023-08-21T13:49:18.314Z,83.69
2023-08-21T13:52:19.756Z,83.00
2023-08-21T13:55:21.140Z,83.72
2023-08-21T13:58:22.507Z,83.98
2023-08-21T14:01:23.897Z,84.77
2023-08-21T14:04:25.406Z,81.91
2023-08-21T14:07:26.986Z,82.14
2023-08-21T14:10:28.443Z,81.90
2023-08-21T14:13:29.831Z,83.89
2023-08-21T14:16:31.265Z,84.37
2023-08-21T14:19:32.762Z,84.86
2023-08-21T14:22:34.143Z,79.76
2023-08-21T14:25:35.579Z,84.33
2023-08-21T14:28:37.005Z,87.14
2023-08-21T14:31:38.390Z,89.54
2023-08-21T14:34:39.775Z,91.58
2023-08-21T14:37:41.196Z,93.61
2023-08-21T14:40:42.604Z,93.08
2023-08-21T14:43:44.310Z,96.58
2023-08-21T14:46:45.732Z,94.77
2023-08-21T14:49:47.153Z,95.10
2023-08-21T14:52:49.200Z,95.85
2023-08-21T14:55:51.917Z,100.00
2023-08-21T14:58:53.342Z,97.65
2023-08-21T15:01:56.410Z,96.56
2023-08-21T15:04:57.877Z,95.60
2023-08-21T15:08:02.321Z,96.14
2023-08-21T15:11:03.720Z,93.91
2023-08-21T15:14:09.733Z,93.86
2023-08-21T15:17:18.764Z,97.46
2023-08-21T15:20:22.073Z,95.65
2023-08-21T15:23:23.442Z,94.60
2023-08-21T15:26:24.904Z,95.81
2023-08-21T15:29:26.316Z,93.21
2023-08-21T15:32:27.661Z,97.07
2023-08-21T15:35:29.080Z,96.49
2023-08-21T15:42:33.775Z,93.72
2023-08-21T15:45:35.151Z,91.22
2023-08-21T15:48:36.661Z,95.65
2023-08-21T15:51:38.072Z,95.66
2023-08-21T15:54:41.252Z,94.98
2023-08-21T15:57:42.993Z,98.94
2023-08-21T16:00:44.373Z,94.75
2023-08-21T16:03:45.796Z,92.70
2023-08-21T16:06:48.190Z,92.70
2023-08-21T16:09:49.638Z,94.53
2023-08-21T16:12:51.023Z,93.97
2023-08-21T16:15:52.470Z,91.24
2023-08-21T16:18:53.885Z,89.67
2023-08-21T16:21:56.963Z,92.74
2023-08-21T16:24:58.368Z,93.35
2023-08-21T16:27:59.825Z,91.41
2023-08-21T16:31:01.705Z,90.01
2023-08-21T16:34:03.379Z,91.53
2023-08-21T16:37:04.750Z,92.67
2023-08-21T16:40:08.852Z,93.71
2023-08-21T16:43:10.216Z,91.54
2023-08-21T16:46:11.701Z,93.71
2023-08-21T16:49:13.085Z,90.01
2023-08-21T16:52:14.798Z,92.51
2023-08-21T16:55:16.264Z,94.37
2023-08-21T16:58:17.894Z,95.89
2023-08-21T17:01:19.320Z,96.11
2023-08-21T17:04:20.757Z,97.43
2023-08-21T17:07:22.188Z,100.00
2023-08-21T17:10:24.490Z,100.00
2023-08-21T17:13:25.885Z,100.00
2023-08-21T17:16:27.631Z,100.00
2023-08-21T17:19:29.203Z,100.00
2023-08-21T17:22:30.582Z,100.00
2023-08-21T17:25:31.976Z,100.00
2023-08-21T17:28:33.340Z,100.00
2023-08-21T17:31:35.038Z,100.00
2023-08-21T17:34:36.447Z,100.00
2023-08-21T17:37:38.215Z,100.00
2023-08-21T17:40:39.847Z,100.00
2023-08-21T17:43:41.410Z,100.00
2023-08-21T17:46:42.822Z,100.00
2023-08-21T17:49:48.320Z,100.00
2023-08-21T17:52:49.712Z,100.00
2023-08-21T17:55:51.096Z,100.00
2023-08-21T17:58:52.523Z,100.00
2023-08-21T18:01:55.601Z,100.00
2023-08-21T18:04:58.699Z,100.00
2023-08-21T18:08:01.453Z,100.00
2023-08-21T18:11:04.736Z,100.00
2023-08-21T18:14:06.147Z,100.00
2023-08-21T18:17:14.168Z,100.00
2023-08-21T18:20:15.890Z,100.00
2023-08-21T18:23:17.493Z,100.00
2023-08-21T18:26:18.975Z,100.00
2023-08-21T18:29:20.345Z,100.00
2023-08-21T18:32:21.737Z,100.00
2023-08-21T18:35:23.159Z,100.00
2023-08-21T18:38:24.598Z,100.00
2023-08-21T18:41:29.106Z,100.00
2023-08-21T18:44:30.662Z,100.00
2023-08-21T18:47:32.084Z,100.00
2023-08-21T18:50:37.679Z,100.00
2023-08-21T18:53:39.224Z,100.00
2023-08-21T18:56:40.620Z,100.00
2023-08-21T18:59:42.044Z,100.00
2023-08-21T19:02:43.521Z,100.00
2023-08-21T19:05:44.962Z,100.00
2023-08-21T19:08:47.270Z,100.00
2023-08-21T19:11:48.662Z,100.00
2023-08-21T19:14:50.027Z,100.00
2023-08-21T19:17:51.440Z,100.00
2023-08-21T19:20:56.786Z,100.00
2023-08-21T19:23:58.582Z,100.00
2023-08-21T19:27:00.143Z,100.00
2023-08-21T19:30:01.597Z,100.00
2023-08-21T19:33:03.072Z,100.00
2023-08-21T19:36:11.320Z,100.00
2023-08-21T19:39:13.006Z,100.00
2023-08-21T19:42:14.402Z,100.00
2023-08-21T19:45:20.182Z,100.00
2023-08-21T19:48:21.578Z,100.00
2023-08-21T19:51:22.988Z,100.00
2023-08-21T19:54:24.366Z,100.00
2023-08-21T19:57:26.011Z,100.00
2023-08-21T20:00:27.440Z,100.00
2023-08-21T20:03:28.988Z,100.00
2023-08-21T20:06:31.658Z,100.00
2023-08-21T20:09:33.276Z,100.00
2023-08-21T20:12:34.734Z,100.00
2023-08-21T20:15:36.121Z,100.00
2023-08-21T20:18:37.787Z,100.00
2023-08-21T20:21:39.191Z,100.00
2023-08-21T20:24:40.590Z,100.00
2023-08-21T20:27:42.220Z,100.00
2023-08-21T20:30:43.929Z,100.00
2023-08-21T20:33:45.291Z,100.00
2023-08-21T20:36:46.725Z,100.00
2023-08-21T20:39:48.120Z,100.00
2023-08-21T20:42:49.507Z,100.00
2023-08-21T20:45:50.908Z,100.00
2023-08-21T20:48:52.313Z,100.00
2023-08-21T20:51:53.651Z,100.00
2023-08-21T20:54:55.054Z,100.00
2023-08-21T20:57:56.440Z,100.00
2023-08-21T21:00:57.927Z,100.00
2023-08-21T21:03:59.317Z,100.00
2023-08-21T21:07:00.743Z,100.00
2023-08-21T21:10:02.342Z,100.00
2023-08-21T21:13:03.908Z,100.00
2023-08-21T21:16:05.290Z,100.00
2023-08-21T21:19:06.640Z,100.00
2023-08-21T21:22:08.374Z,100.00
2023-08-21T21:25:10.397Z,100.00
2023-08-21T21:28:11.816Z,100.00
2023-08-21T21:31:13.599Z,100.00
2023-08-21T21:34:15.045Z,100.00
2023-08-21T21:37:16.480Z,100.00
2023-08-21T21:40:17.886Z,100.00
2023-08-21T21:43:19.313Z,100.00
2023-08-21T21:46:24.625Z,100.00
2023-08-21T21:49:26.011Z,100.00
2023-08-21T21:52:27.375Z,100.00
2023-08-21T21:55:28.880Z,100.00
2023-08-21T21:58:30.343Z,100.00
2023-08-21T22:01:31.752Z,100.00
2023-08-21T22:04:33.225Z,100.00
2023-08-21T22:07:34.616Z,100.00
2023-08-21T22:10:36.624Z,100.00
2023-08-21T22:13:38.120Z,100.00
2023-08-21T22:16:39.535Z,100.00
2023-08-21T22:19:40.990Z,100.00
2023-08-21T22:22:42.411Z,100.00
2023-08-21T22:25:43.761Z,100.00
2023-08-21T22:28:45.321Z,100.00
2023-08-21T22:31:46.763Z,100.00
2023-08-21T22:34:48.141Z,100.00
2023-08-21T22:37:49.594Z,100.00
2023-08-21T22:40:51.015Z,100.00
2023-08-21T22:43:52.391Z,100.00
2023-08-21T22:46:53.774Z,100.00
2023-08-21T22:49:55.221Z,100.00
2023-08-21T22:52:56.925Z,100.00
2023-08-21T22:55:58.345Z,100.00
2023-08-21T22:58:59.797Z,100.00
2023-08-21T23:02:01.176Z,100.00
2023-08-21T23:05:03.088Z,100.00
2023-08-21T23:08:04.767Z,100.00
2023-08-21T23:11:06.436Z,100.00
2023-08-21T23:14:08.551Z,100.00
2023-08-21T23:17:12.501Z,100.00
2023-08-21T23:20:13.863Z,100.00
2023-08-21T23:23:15.322Z,100.00
2023-08-21T23:26:16.735Z,100.00
2023-08-21T23:29:18.455Z,100.00
2023-08-21T23:32:19.857Z,100.00
2023-08-21T23:35:21.286Z,100.00
2023-08-21T23:38:22.659Z,100.00
2023-08-21T23:41:24.109Z,100.00
2023-08-21T23:44:26.551Z,100.00
2023-08-21T23:47:27.916Z,100.00
2023-08-21T23:50:32.199Z,100.00
2023-08-21T23:53:33.690Z,100.00
2023-08-21T23:56:35.714Z,100.00
2023-08-21T23:59:37.198Z,100.00
